Str Lee A Tregurtha — WUR8857 — position and weather

sailwx.info

Track history (hours):
 
Tides and Currents Weather Stations Pressure Air Temp Water Temp Dewpoint Dewpoint Depression Visibility Wind Speed Wind Dir Waves Ship Positions

Str Lee A Tregurtha

Owner: THE INTERLAKE STEAMSHIP COMPANY, Middleburg Heights, OH. More information available from US FCC via Universal Licensing System and Coast Guard Vessel Documentation Center.

Last reported at 2017-Dec-11 11:00 UTC. Time now 2017-Dec-13 17:00 UTC.
Position N 45°18' W 083°12'.

Length 252 m; draft 8.4 m.

Type: Cargo ship. MMSI: 366904950.

Wind from 020 at 10 knots

Barometer 1015.4 mb
Air temperature -7.2 ° C
Water temperature 5.5 ° C

Date/timePositionNaut miles runAvg speedWind from/ knotsBaromVisibWave heightAir tempDewpointWater temp
2017-Dec-11 11:00N 45°18' W 083°12'1013.0 020 / 101015.4 -7.2 5.5
2017-Dec-11 10:14N 45°26' W 083°21'312.9
2017-Dec-11 10:00N 45°28' W 083°23'2122.8
2017-Dec-11 10:00N 45°30' W 083°24'5 9.6 140 / 151016.0 -8.4 5.6
2017-Dec-11 09:30N 45°33' W 083°28'612.9
2017-Dec-11 09:00N 45°39' W 083°34'4283.1
2017-Dec-11 09:00N 45°36' W 083°30'1020.9 350 / 91016.710.8 -9.7 5.2
2017-Dec-11 08:30N 45°44' W 083°39'1912.6
2017-Dec-11 07:00N 46°00' W 083°54'7 7.3 020 / 71017.4 -11.5 1.9
2017-Dec-11 06:00N 46°06' W 084°00'1514.6 010 / 41016.7 -13.3 1.2
2017-Dec-11 05:00N 46°18' W 084°12'6 6.0 040 / 91016.7 -13.4 1.9
2017-Dec-11 04:00N 46°24' W 084°12'7 7.3 360 / 61016.7 -13.9 2.6
2017-Dec-11 03:00N 46°30' W 084°18'4 4.1 050 / 61016.0 -13.9 2.6
2017-Dec-11 02:00N 46°30' W 084°24'4 4.1 050 / 91015.9 -13.8 2.9
2017-Dec-11 01:00N 46°30' W 084°30'1010.2 040 / 131014.9 -12.0 3.7
2017-Dec-11 00:00N 46°36' W 084°42'1514.6 360 / 171015.210.8 -8.3 5.2
2017-Dec-10 23:00N 46°48' W 084°54'1010.2 350 / 191014.910.8 -9.6 4.1
2017-Dec-10 22:00N 46°54' W 085°06'1413.7 330 / 211013.910.8 -8.4 4.3
2017-Dec-10 21:00N 47°00' W 085°24'1212.3 360 / 161013.5 -9.0 5.5
2017-Dec-10 20:00N 47°00' W 085°42'7212.0 340 / 181013.2 -9.3 5.1
2017-Dec-10 14:00N 47°30' W 087°18'1413.5 340 / 271010.2 -5.9 4.5
2017-Dec-10 13:00N 47°36' W 087°36'1312.7 340 / 241009.5 -5.9 4.7
2017-Dec-10 12:00N 47°24' W 087°42'1212.0 350 / 181008.8 2.2 -5.5 4.2
2017-Dec-10 11:00N 47°12' W 087°42'1212.0 340 / 211007.5 -4.9 5.3
2017-Dec-10 10:00N 47°00' W 087°42'7 7.3 280 / 191008.510.8 -4.2 5.2
2017-Dec-10 09:00N 46°54' W 087°36'1312.7 260 / 241007.8 -5.5 4.0
2017-Dec-10 08:00N 46°42' W 087°30'7 7.3 250 / 201008.8 -7.1 4.3
2017-Dec-10 07:00N 46°36' W 087°24'0 0.0 250 / 131010.2 -8.2 3.6
2017-Dec-10 06:00N 46°36' W 087°24'0 0.0 250 / 31010.5 -8.6 3.8
2017-Dec-10 05:00N 46°36' W 087°24'0 0.0 220 / 31011.2 -8.6 3.9
2017-Dec-10 04:00N 46°36' W 087°24'0 0.0 120 / 31012.2 -8.2 3.9
2017-Dec-10 03:00N 46°36' W 087°24'0 0.0 170 / 11012.9 -7.9 4.0
2017-Dec-10 02:00N 46°36' W 087°24'0 0.0 130 / 21013.5 -8.1 4.1
2017-Dec-10 01:00N 46°36' W 087°24'0 0.0 210 / 21013.9 -8.6 4.0
2017-Dec-10 00:00N 46°36' W 087°24'0 0.0 230 / 61014.9 -8.9 3.9
2017-Dec-09 23:00N 46°36' W 087°24'0 0.0 280 / 41014.6 -8.3 3.8
2017-Dec-09 22:00N 46°36' W 087°24'0 0.0 260 / 21014.6 -8.1 3.6
2017-Dec-09 21:00N 46°36' W 087°24'0 0.0 250 / 61014.2 -7.6 3.6
2017-Dec-09 20:00N 46°36' W 087°24'4 4.1 290 / 91013.9 -7.1 3.5
2017-Dec-09 19:00N 46°36' W 087°18'1818.5 340 / 171013.9 -5.9 5.3
2017-Dec-09 18:00N 46°54' W 087°12'4 4.1 010 / 151013.9 -6.6 4.9
2017-Dec-09 17:00N 46°54' W 087°06'2010.2 330 / 241012.9 5.4 -7.1 4.6
2017-Dec-09 15:00N 46°42' W 086°42'1212.3 350 / 321010.5 -5.3 5.0
2017-Dec-09 14:00N 46°42' W 086°24'1212.3 360 / 301009.8 -4.8 4.9
2017-Dec-09 13:00N 46°42' W 086°06'1413.7 180 / 111009.5 -5.5 4.6
2017-Dec-09 12:00N 46°48' W 085°48'1212.3 170 / 141008.810.8 -5.2 4.7
2017-Dec-09 11:00N 46°48' W 085°30'1212.3 160 / 161008.510.8 -6.7 4.6
2017-Dec-09 10:00N 46°48' W 085°12'1212.3 160 / 161008.1 -5.8 4.1
2017-Dec-09 09:00N 46°48' W 084°54'1514.6 130 / 171008.5 -6.3 5.5
2017-Dec-09 08:00N 46°36' W 084°42'1010.2 130 / 181008.8 -7.8 5.5
2017-Dec-09 07:00N 46°30' W 084°30'4 4.1 100 / 121008.8 -9.3 3.9
2017-Dec-09 06:00N 46°30' W 084°24'4 4.1 100 / 51008.5 -9.2 3.7
2017-Dec-09 05:00N 46°30' W 084°18'7 7.3 100 / 81008.9 -9.4 3.2
2017-Dec-09 04:00N 46°24' W 084°12'7 7.3 090 / 131008.9 -9.1 3.2
2017-Dec-09 03:00N 46°18' W 084°06'1312.7 110 / 71008.9 -9.0 2.7
2017-Dec-09 02:00N 46°06' W 084°00'7 7.3 080 / 111008.9 -8.0 2.6
2017-Dec-09 01:00N 46°00' W 083°54'1119.4 040 / 101008.610.8 -6.4 4.7
2017-Dec-09 00:24N 45°49' W 083°47'512.9
2017-Dec-09 00:00N 45°45' W 083°43'3234.2
2017-Dec-09 00:00N 45°48' W 083°42'917.5 330 / 181007.910.8 -5.3 5.6
2017-Dec-08 23:29N 45°40' W 083°38'612.9
2017-Dec-08 23:00N 45°34' W 083°33'3272.5
2017-Dec-08 23:00N 45°36' W 083°36'918.2 320 / 191007.9 5.4 -4.7 5.5
2017-Dec-08 22:30N 45°29' W 083°28'611.4
2017-Dec-08 22:00N 45°24' W 083°24'145.8 340 / 221007.2 -4.5 6.0
2017-Dec-08 21:58N 45°23' W 083°22'1414.0
2017-Dec-08 21:00N 45°12' W 083°12'7 7.3 270 / 261006.210.8 -3.1 5.5
2017-Dec-08 20:00N 45°06' W 083°06'1818.5 290 / 181006.6 -3.2 4.0
2017-Dec-08 19:00N 44°48' W 083°12'1212.0 260 / 251006.2 -1.6 5.9
2017-Dec-08 18:00N 44°36' W 083°12'1212.0 240 / 221007.2 -2.0 5.3
2017-Dec-08 17:00N 44°24' W 083°12'1212.0 250 / 221008.3 -2.4 5.4
2017-Dec-08 16:00N 44°12' W 083°12'7 7.4 230 / 281009.3 -1.4 5.7
2017-Dec-08 15:00N 44°06' W 083°06'9 8.6 220 / 371006.9 -2.2 5.6
2017-Dec-08 14:00N 44°06' W 082°54'1110.5 210 / 271008.3 -3.3 4.6
2017-Dec-08 13:00N 44°00' W 082°42'1514.8 210 / 231010.3 -3.8 5.2
2017-Dec-08 12:00N 43°48' W 082°30'1212.0 200 / 191011.3 -3.2 5.2
2017-Dec-08 11:00N 43°36' W 082°30'1212.0 210 / 201012.310.8 -3.1 5.9
2017-Dec-08 10:00N 43°24' W 082°30'1312.8 210 / 181013.3 -2.7 6.0
2017-Dec-08 09:00N 43°12' W 082°24'1212.0 220 / 151014.3 -3.3 5.8
2017-Dec-08 08:00N 43°00' W 082°24'1312.8 210 / 171015.0 -4.0 5.6
2017-Dec-08 07:00N 42°48' W 082°30'6 6.0 230 / 91015.0 -4.3 5.6
2017-Dec-08 06:00N 42°42' W 082°30'1312.8 240 / 131016.0 -3.8 5.6
2017-Dec-08 05:00N 42°30' W 082°36'1110.7 250 / 131016.9 -3.3 5.5
2017-Dec-08 04:00N 42°24' W 082°48'1110.7 240 / 141017.5 -3.3 4.4
2017-Dec-08 03:00N 42°18' W 083°00'4 4.4 250 / 101018.2 -3.3 4.5
2017-Dec-08 02:00N 42°18' W 083°06'4 4.4 240 / 81018.6 -3.7 9.8
2017-Dec-08 01:00N 42°18' W 083°12'0 0.0 240 / 141018.2 -2.6 12.8
2017-Dec-08 00:00N 42°18' W 083°12'0 0.0 280 / 41017.9 -2.6 12.8
2017-Dec-07 23:00N 42°18' W 083°12'0 0.0 250 / 111017.2 -2.0 13.3
2017-Dec-07 22:00N 42°18' W 083°12'0 0.0 240 / 101016.9 -1.6 13.9
2017-Dec-07 21:00N 42°18' W 083°12'0 0.0 270 / 71016.5 -1.5 15.9
2017-Dec-07 20:00N 42°18' W 083°12'0 0.0 290 / 111015.9 -1.8 15.5
2017-Dec-07 19:00N 42°18' W 083°12'0 0.0 290 / 121016.2 -1.5 14.9
2017-Dec-07 18:00N 42°18' W 083°12'0 0.0 270 / 61016.2 -1.5 11.4
2017-Dec-07 17:00N 42°18' W 083°12'4 4.4 250 / 131016.9 -2.3 12.0
2017-Dec-07 16:00N 42°18' W 083°06'0 0.0 260 / 71017.5 -3.0 11.7
2017-Dec-07 15:00N 42°18' W 083°06'4 4.4 280 / 131016.9 -3.4 4.8
2017-Dec-07 14:00N 42°18' W 083°00'1110.7 280 / 131015.9 -2.3 4.8
2017-Dec-07 13:00N 42°24' W 082°48'1514.9 270 / 151015.5 -2.1 4.8
2017-Dec-07 12:00N 42°36' W 082°36'7 7.4 290 / 81015.5 -2.1 5.8
2017-Dec-07 11:00N 42°42' W 082°30'1212.0 290 / 101015.0 -2.1 5.8
2017-Dec-07 10:00N 42°54' W 082°30'7 7.4 240 / 61014.7 -2.4 5.8
2017-Dec-07 09:00N 43°00' W 082°24'1212.0 260 / 101014.3 -2.2 6.0
2017-Dec-07 08:00N 43°12' W 082°24'1212.0 260 / 191014.0 -2.3 6.4
2017-Dec-07 07:00N 43°24' W 082°24'1212.0 270 / 161013.3 -1.9 6.7
2017-Dec-07 06:00N 43°36' W 082°24'1312.8 270 / 201013.0 -1.7 6.6
2017-Dec-07 05:00N 43°48' W 082°30'1312.8 260 / 201013.0 -2.0 6.5
2017-Dec-07 04:00N 44°00' W 082°36'1514.8 280 / 261012.7 -1.7 5.9
2017-Dec-07 03:00N 44°12' W 082°48'1414.2 280 / 231012.7 -1.8 6.1
2017-Dec-07 02:00N 44°18' W 083°06'7 7.4 270 / 201012.7 -2.3 5.9
2017-Dec-07 01:00N 44°24' W 083°12'1212.0 270 / 201011.6 -3.0 5.7
2017-Dec-07 00:00N 44°36' W 083°12'1212.0 260 / 251010.310.8 -2.8 5.3
2017-Dec-06 23:00N 44°48' W 083°12'1312.7 270 / 251009.310.8 -2.1 6.2
2017-Dec-06 22:00N 45°00' W 083°06'6 6.0 270 / 241007.9 5.4 -2.1 5.8
2017-Dec-06 21:00N 45°06' W 083°06'1514.7 260 / 251006.9 -2.5 5.9
2017-Dec-06 20:00N 45°18' W 083°18'1414.0 290 / 181006.9 -3.3 6.3
2017-Dec-06 19:00N 45°24' W 083°36'1010.3 290 / 201006.2 -3.2 6.3
2017-Dec-06 18:00N 45°30' W 083°48'1514.6 300 / 271005.5 -3.4 6.3
2017-Dec-06 17:00N 45°42' W 084°00'7 7.3 270 / 301004.5 -3.7 5.8
2017-Dec-06 16:00N 45°48' W 084°06'1010.3 290 / 351003.2 -3.7 5.7
2017-Dec-06 15:00N 45°54' W 083°54'7 7.3 290 / 301003.2 -3.5 5.2
2017-Dec-06 14:00N 46°00' W 084°00'6 6.0 260 / 181003.5 -5.4 3.7
2017-Dec-06 13:00N 46°06' W 084°00'0 0.0 280 / 141003.2 -5.9 3.8
2017-Dec-06 12:00N 46°06' W 084°00'0 0.0 270 / 161002.8 -6.3 3.9
2017-Dec-06 11:00N 46°06' W 084°00'0 0.0 290 / 121002.5 -6.5 3.9
2017-Dec-06 10:00N 46°06' W 084°00'0 0.0 280 / 131002.5 -6.4 3.9
2017-Dec-06 09:00N 46°06' W 084°00'0 0.0 280 / 91002.8 -6.4 3.9
2017-Dec-06 08:00N 46°06' W 084°00'0 0.0 300 / 141002.8 -6.2 3.8
2017-Dec-06 07:00N 46°06' W 084°00'0 0.0 290 / 121002.5 -5.8 3.9
2017-Dec-06 06:00N 46°06' W 084°00'0 0.0 270 / 181002.2 -4.8 3.9
2017-Dec-06 05:00N 46°06' W 084°00'0 0.0 270 / 191002.2 -3.8 3.9
2017-Dec-06 04:00N 46°06' W 084°00'0 0.0 240 / 281001.1 -2.8 3.9
2017-Dec-06 03:00N 46°06' W 084°00'0 0.0 240 / 271001.1 -2.6 3.9
2017-Dec-06 02:00N 46°06' W 084°00'0 0.0 250 / 31999.8 -2.2 3.9
2017-Dec-06 01:00N 46°06' W 084°00'0 0.0 260 / 27999.4 -2.0 4.0
2017-Dec-06 00:00N 46°06' W 084°00'0 0.0 260 / 20998.8 -1.4 4.3
2017-Dec-05 23:00N 46°06' W 084°00'0 0.0 260 / 29997.8 -0.7 4.3
2017-Dec-05 22:00N 46°06' W 084°00'0 0.0 250 / 25997.1 -0.5 4.3
2017-Dec-05 21:00N 46°06' W 084°00'0 0.0 250 / 28996.4 0.3 4.2
2017-Dec-05 20:00N 46°06' W 084°00'0 0.0 240 / 30995.7 0.8 4.4
2017-Dec-05 19:00N 46°06' W 084°00'0 0.0 240 / 40994.7 1.4 4.3
2017-Dec-05 18:00N 46°06' W 084°00'0 0.0 230 / 34995.0 2.1 4.5
2017-Dec-05 17:00N 46°06' W 084°00'0 0.0 240 / 30994.7 2.5 4.0
2017-Dec-05 16:00N 46°06' W 084°00'0 0.0 240 / 34994.7 2.9 4.6
2017-Dec-05 15:00N 46°06' W 084°00'0 0.0 230 / 39993.7 3.3 4.7
2017-Dec-05 14:00N 46°06' W 084°00'0 0.0 240 / 38992.3 4.1 4.8
2017-Dec-05 13:00N 46°06' W 084°00'0 0.0 230 / 36991.7 5.3 4.8
2017-Dec-05 12:00N 46°06' W 084°00'0 0.0 240 / 38991.0 6.1 4.7
2017-Dec-05 11:00N 46°06' W 084°00'0 0.0 250 / 30990.6 8.3 4.3
2017-Dec-05 10:00N 46°06' W 084°00'0 0.0 260 / 22990.3 9.7 4.1
2017-Dec-05 09:00N 46°06' W 084°00'0 0.0 160 / 17990.3 9.0 4.4
2017-Dec-05 08:00N 46°06' W 084°00'0 0.0 160 / 20991.7 8.5 4.4
2017-Dec-05 07:00N 46°06' W 084°00'0 0.0 160 / 18993.4 9.4 4.1
2017-Dec-05 06:00N 46°06' W 084°00'0 0.0 170 / 17994.4 10.2 4.4
2017-Dec-05 05:00N 46°06' W 084°00'0 0.0 170 / 14995.7 10.5 4.3
2017-Dec-05 04:00N 46°06' W 084°00'0 0.0 160 / 19996.7 10.4 4.3
2017-Dec-05 03:00N 46°06' W 084°00'0 0.0 150 / 12998.1 9.5 4.1
2017-Dec-05 02:00N 46°06' W 084°00'0 0.0 150 / 14998.8 7.7 4.1
2017-Dec-05 01:00N 46°06' W 084°00'0 0.0 150 / 151000.1 7.3 4.0
2017-Dec-05 00:00N 46°06' W 084°00'0 0.0 120 / 121001.1 5.9 3.9
2017-Dec-04 23:00N 46°06' W 084°00'1010.3 080 / 181002.2 6.1 4.3
2017-Dec-04 22:00N 46°12' W 084°12'6 6.0 100 / 181002.2 5.4 5.0
2017-Dec-04 21:00N 46°18' W 084°12'1312.7 110 / 141004.5 5.7 5.4
2017-Dec-04 20:00N 46°30' W 084°18'4 4.1 130 / 181004.5 5.5 5.3
2017-Dec-04 19:00N 46°30' W 084°24'0 0.0 120 / 121006.4 5.8 5.5
2017-Dec-04 18:00N 46°30' W 084°24'4 4.1 130 / 191007.1 5.6 5.5
2017-Dec-04 17:00N 46°30' W 084°30'8 8.3 140 / 211007.1 5.0 5.8
2017-Dec-04 16:00N 46°30' W 084°42'0 0.0 130 / 401007.1 5.2 6.1
2017-Dec-04 15:00N 46°30' W 084°42'7 7.3 120 / 281010.2 5.4 6.3
2017-Dec-04 14:00N 46°36' W 084°48'1312.7 120 / 381008.8 5.4 5.0 6.2
2017-Dec-04 13:00N 46°48' W 084°54'1212.3 130 / 361010.2 2.2 4.5 5.5
2017-Dec-04 12:00N 46°48' W 085°12'1413.7 130 / 321011.2 3.8 5.3
2017-Dec-04 11:00N 46°42' W 085°30'1212.3 140 / 291011.5 4.4 5.4
2017-Dec-04 10:00N 46°42' W 085°48'1212.3 150 / 251012.510.8 5.1 5.1
2017-Dec-04 09:00N 46°42' W 086°06'1212.3 140 / 201012.5 6.5 5.1
2017-Dec-04 08:00N 46°42' W 086°24'1413.7 150 / 301011.9 6.0 5.1
2017-Dec-04 07:00N 46°36' W 086°42'1212.4 140 / 261013.5 5.4 5.2
2017-Dec-04 06:00N 46°36' W 087°00'1212.4 140 / 181014.9 5.1 5.4
2017-Dec-04 05:00N 46°36' W 087°18'4 4.1 160 / 181015.6 5.5 5.6
2017-Dec-04 04:00N 46°36' W 087°24'0 0.0 150 / 11015.9 4.5 5.1
2017-Dec-04 03:00N 46°36' W 087°24'0 0.0 160 / 11016.6 4.3 5.1
2017-Dec-04 02:00N 46°36' W 087°24'0 0.0 120 / 61016.6 4.4 5.1
2017-Dec-04 01:00N 46°36' W 087°24'0 0.0 250 / 11017.3 4.3 5.2
2017-Dec-04 00:00N 46°36' W 087°24'0 0.0 020 / 21017.3 4.6 5.2
2017-Dec-03 23:00N 46°36' W 087°24'0 0.0 010 / 21016.9 5.5 5.2
2017-Dec-03 22:00N 46°36' W 087°24'0 0.0 110 / 11017.3 6.5 5.4
2017-Dec-03 21:00N 46°36' W 087°24'0 0.0 090 / 11017.3 7.3 5.4
2017-Dec-03 20:00N 46°36' W 087°24'0 0.0 090 / 11017.3 7.3 5.4
2017-Dec-03 19:00N 46°36' W 087°24'0 0.0 100 1017.6 7.8 5.4
2017-Dec-03 18:00N 46°36' W 087°24'0 0.0 220 / 61017.9 7.1 5.2
2017-Dec-03 17:00N 46°36' W 087°24'0 0.0 230 / 21018.6 7.7 5.1
2017-Dec-03 16:00N 46°36' W 087°24'0 0.0 030 / 11019.0 5.3 5.1
2017-Dec-03 15:00N 46°36' W 087°24'4 4.1 120 / 21019.0 4.3 5.0
2017-Dec-03 14:00N 46°36' W 087°18'1616.5 190 / 181019.0 1.7 5.5
2017-Dec-03 13:00N 46°36' W 086°54'1413.7 190 / 91019.3 2.5 5.4
2017-Dec-03 12:00N 46°42' W 086°36'1212.3 180 / 101019.3 3.2 5.0
2017-Dec-03 11:00N 46°42' W 086°18'1212.3 270 / 51019.3 4.1 5.0
2017-Dec-03 10:00N 46°42' W 086°00'1413.7 320 / 101018.310.8 4.2 5.2
2017-Dec-03 09:00N 46°48' W 085°42'1212.3 330 / 101018.310.8 4.2 5.6
2017-Dec-03 08:00N 46°48' W 085°24'1212.3 310 / 101018.3 4.3 5.5
2017-Dec-03 07:00N 46°48' W 085°06'1413.7 310 / 111017.3 4.5 5.5
2017-Dec-03 06:00N 46°42' W 084°48'1514.6 300 / 161016.6 4.5 6.3
2017-Dec-03 05:00N 46°30' W 084°36'8 8.3 350 / 171016.9 4.5 6.0
2017-Dec-03 04:00N 46°30' W 084°24'0 0.0 310 / 51016.9 4.1 5.5
2017-Dec-03 03:00N 46°30' W 084°24'4 4.1 300 / 51017.9 4.4 5.2
2017-Dec-03 02:00N 46°30' W 084°18'7 7.3 330 / 61016.7 3.7 5.2
2017-Dec-03 01:00N 46°24' W 084°12'7 7.3 280 / 91016.4 3.9 5.2
2017-Dec-03 00:00N 46°18' W 084°06'1312.7 300 / 41016.4 5.2 4.9
2017-Dec-02 23:00N 46°06' W 084°00'7 7.3 250 / 21016.0 6.3 4.0
2017-Dec-02 22:00N 46°00' W 083°54'1317.9 260 / 91015.7 6.5 5.4
2017-Dec-02 21:16N 45°48' W 083°47'313.6
2017-Dec-02 21:00N 45°45' W 083°45'4280.0
2017-Dec-02 21:00N 45°48' W 083°48'1122.1 170 / 61015.710.8 6.7 5.8
2017-Dec-02 20:30N 45°39' W 083°39'713.6
2017-Dec-02 20:01N 45°34' W 083°34'3168.4
2017-Dec-02 20:00N 45°36' W 083°36'1020.0 170 / 51015.7 6.4 6.2
2017-Dec-02 19:30N 45°28' W 083°29'5 9.6
2017-Dec-02 19:00N 45°24' W 083°24'1514.7 170 / 121016.4 6.3 6.9
2017-Dec-02 18:00N 45°12' W 083°12'1514.7 180 / 141017.110.8 5.4 6.8
2017-Dec-02 17:00N 45°00' W 083°00'1514.7 190 / 151018.1 5.4 6.7
2017-Dec-02 16:00N 44°48' W 082°48'7312.1 200 / 181019.1 5.6 6.9
2017-Dec-02 10:00N 43°42' W 082°06'6 6.0 200 / 121021.5 5.9 7.3
2017-Dec-02 09:00N 43°36' W 082°06'1312.8 200 / 141021.810.8 5.6 7.5
2017-Dec-02 08:00N 43°24' W 082°12'7 7.4 210 / 111022.5 5.6 7.2
2017-Dec-02 07:00N 43°18' W 082°18'6 6.0 200 / 111022.8 5.2 7.1
2017-Dec-02 06:00N 43°12' W 082°18'1312.8 190 / 111022.8 4.7 6.9
2017-Dec-02 05:00N 43°00' W 082°24'7 7.4 200 / 81023.2 4.0 6.7
2017-Dec-02 04:00N 42°54' W 082°30'1212.0 170 / 51023.5 2.6 6.8
2017-Dec-02 03:00N 42°42' W 082°30'7 7.4 130 / 51023.5 1.5 6.7
2017-Dec-02 02:00N 42°36' W 082°36'7 7.5 160 / 51023.8 3.4 6.7
2017-Dec-02 01:00N 42°30' W 082°42'1110.7 180 / 91023.6 5.1 6.7
2017-Dec-02 00:00N 42°24' W 082°54'7 7.5 190 / 61024.0 4.3 6.3
2017-Dec-01 23:00N 42°18' W 083°00'4 4.4 190 / 41024.0 4.9 6.0
2017-Dec-01 22:00N 42°18' W 083°06'0 0.0 160 / 61023.6 6.1 5.6
2017-Dec-01 21:00N 42°18' W 083°06'0 0.0 190 / 71023.6 6.9 6.0
2017-Dec-01 20:00N 42°18' W 083°06'4 4.4 210 / 51023.6 7.8 12.2
2017-Dec-01 19:00N 42°18' W 083°12'0 0.0 250 / 61023.6 8.4 13.3
2017-Dec-01 18:00N 42°18' W 083°12'0 0.0 220 / 41024.3 8.3 13.4
2017-Dec-01 17:00N 42°18' W 083°12'0 0.0 300 / 31025.0 6.7 13.2
2017-Dec-01 16:00N 42°18' W 083°12'0 0.0 340 / 51025.7 5.5 11.9
2017-Dec-01 15:00N 42°18' W 083°12'0 0.0 340 / 31025.3 4.1 12.2
2017-Dec-01 14:00N 42°18' W 083°12'0 0.0 320 / 41024.7 3.1 12.1
2017-Dec-01 13:00N 42°18' W 083°12'0 0.0 260 / 51024.7 1.5 11.1
2017-Dec-01 12:00N 42°18' W 083°12'0 0.0 320 / 61024.3 2.1 11.1
2017-Dec-01 11:00N 42°18' W 083°12'   320 / 61023.6 2.9 12.8
Track history (hours):
 
Tides and Currents Weather Stations Pressure Air Temp Water Temp Dewpoint Dewpoint Depression Visibility Wind Speed Wind Dir Waves Ship Positions

Str Lee A Tregurtha

Owner: THE INTERLAKE STEAMSHIP COMPANY, Middleburg Heights, OH. More information available from US FCC via Universal Licensing System and Coast Guard Vessel Documentation Center.

Last reported at 2017-Dec-11 11:00 UTC. Time now 2017-Dec-13 17:00 UTC.
Position N 45°18' W 083°12'.

Length 252 m; draft 8.4 m.

Type: Cargo ship. MMSI: 366904950.

Wind from 020 at 10 knots

Barometer 1015.4 mb
Air temperature -7.2 ° C
Water temperature 5.5 ° C

Date/timePositionNaut miles runAvg speedWind from/ knotsBaromVisibWave heightAir tempDewpointWater temp
2017-Dec-11 11:00N 45°18' W 083°12'1013.0 020 / 101015.4 -7.2 5.5
2017-Dec-11 10:14N 45°26' W 083°21'312.9
2017-Dec-11 10:00N 45°28' W 083°23'2122.8
2017-Dec-11 10:00N 45°30' W 083°24'5 9.6 140 / 151016.0 -8.4 5.6
2017-Dec-11 09:30N 45°33' W 083°28'612.9
2017-Dec-11 09:00N 45°39' W 083°34'4283.1
2017-Dec-11 09:00N 45°36' W 083°30'1020.9 350 / 91016.710.8 -9.7 5.2
2017-Dec-11 08:30N 45°44' W 083°39'1912.6
2017-Dec-11 07:00N 46°00' W 083°54'7 7.3 020 / 71017.4 -11.5 1.9
2017-Dec-11 06:00N 46°06' W 084°00'1514.6 010 / 41016.7 -13.3 1.2
2017-Dec-11 05:00N 46°18' W 084°12'6 6.0 040 / 91016.7 -13.4 1.9
2017-Dec-11 04:00N 46°24' W 084°12'7 7.3 360 / 61016.7 -13.9 2.6
2017-Dec-11 03:00N 46°30' W 084°18'4 4.1 050 / 61016.0 -13.9 2.6
2017-Dec-11 02:00N 46°30' W 084°24'4 4.1 050 / 91015.9 -13.8 2.9
2017-Dec-11 01:00N 46°30' W 084°30'1010.2 040 / 131014.9 -12.0 3.7
2017-Dec-11 00:00N 46°36' W 084°42'1514.6 360 / 171015.210.8 -8.3 5.2
2017-Dec-10 23:00N 46°48' W 084°54'1010.2 350 / 191014.910.8 -9.6 4.1
2017-Dec-10 22:00N 46°54' W 085°06'1413.7 330 / 211013.910.8 -8.4 4.3
2017-Dec-10 21:00N 47°00' W 085°24'1212.3 360 / 161013.5 -9.0 5.5
2017-Dec-10 20:00N 47°00' W 085°42'7212.0 340 / 181013.2 -9.3 5.1
2017-Dec-10 14:00N 47°30' W 087°18'1413.5 340 / 271010.2 -5.9 4.5
2017-Dec-10 13:00N 47°36' W 087°36'1312.7 340 / 241009.5 -5.9 4.7
2017-Dec-10 12:00N 47°24' W 087°42'1212.0 350 / 181008.8 2.2 -5.5 4.2
2017-Dec-10 11:00N 47°12' W 087°42'1212.0 340 / 211007.5 -4.9 5.3
2017-Dec-10 10:00N 47°00' W 087°42'7 7.3 280 / 191008.510.8 -4.2 5.2
2017-Dec-10 09:00N 46°54' W 087°36'1312.7 260 / 241007.8 -5.5 4.0
2017-Dec-10 08:00N 46°42' W 087°30'7 7.3 250 / 201008.8 -7.1 4.3
2017-Dec-10 07:00N 46°36' W 087°24'0 0.0 250 / 131010.2 -8.2 3.6
2017-Dec-10 06:00N 46°36' W 087°24'0 0.0 250 / 31010.5 -8.6 3.8
2017-Dec-10 05:00N 46°36' W 087°24'0 0.0 220 / 31011.2 -8.6 3.9
2017-Dec-10 04:00N 46°36' W 087°24'0 0.0 120 / 31012.2 -8.2 3.9
2017-Dec-10 03:00N 46°36' W 087°24'0 0.0 170 / 11012.9 -7.9 4.0
2017-Dec-10 02:00N 46°36' W 087°24'0 0.0 130 / 21013.5 -8.1 4.1
2017-Dec-10 01:00N 46°36' W 087°24'0 0.0 210 / 21013.9 -8.6 4.0
2017-Dec-10 00:00N 46°36' W 087°24'0 0.0 230 / 61014.9 -8.9 3.9
2017-Dec-09 23:00N 46°36' W 087°24'0 0.0 280 / 41014.6 -8.3 3.8
2017-Dec-09 22:00N 46°36' W 087°24'0 0.0 260 / 21014.6 -8.1 3.6
2017-Dec-09 21:00N 46°36' W 087°24'0 0.0 250 / 61014.2 -7.6 3.6
2017-Dec-09 20:00N 46°36' W 087°24'4 4.1 290 / 91013.9 -7.1 3.5
2017-Dec-09 19:00N 46°36' W 087°18'1818.5 340 / 171013.9 -5.9 5.3
2017-Dec-09 18:00N 46°54' W 087°12'4 4.1 010 / 151013.9 -6.6 4.9
2017-Dec-09 17:00N 46°54' W 087°06'2010.2 330 / 241012.9 5.4 -7.1 4.6
2017-Dec-09 15:00N 46°42' W 086°42'1212.3 350 / 321010.5 -5.3 5.0
2017-Dec-09 14:00N 46°42' W 086°24'1212.3 360 / 301009.8 -4.8 4.9
2017-Dec-09 13:00N 46°42' W 086°06'1413.7 180 / 111009.5 -5.5 4.6
2017-Dec-09 12:00N 46°48' W 085°48'1212.3 170 / 141008.810.8 -5.2 4.7
2017-Dec-09 11:00N 46°48' W 085°30'1212.3 160 / 161008.510.8 -6.7 4.6
2017-Dec-09 10:00N 46°48' W 085°12'1212.3 160 / 161008.1 -5.8 4.1
2017-Dec-09 09:00N 46°48' W 084°54'1514.6 130 / 171008.5 -6.3 5.5
2017-Dec-09 08:00N 46°36' W 084°42'1010.2 130 / 181008.8 -7.8 5.5
2017-Dec-09 07:00N 46°30' W 084°30'4 4.1 100 / 121008.8 -9.3 3.9
2017-Dec-09 06:00N 46°30' W 084°24'4 4.1 100 / 51008.5 -9.2 3.7
2017-Dec-09 05:00N 46°30' W 084°18'7 7.3 100 / 81008.9 -9.4 3.2
2017-Dec-09 04:00N 46°24' W 084°12'7 7.3 090 / 131008.9 -9.1 3.2
2017-Dec-09 03:00N 46°18' W 084°06'1312.7 110 / 71008.9 -9.0 2.7
2017-Dec-09 02:00N 46°06' W 084°00'7 7.3 080 / 111008.9 -8.0 2.6
2017-Dec-09 01:00N 46°00' W 083°54'1119.4 040 / 101008.610.8 -6.4 4.7
2017-Dec-09 00:24N 45°49' W 083°47'512.9
2017-Dec-09 00:00N 45°45' W 083°43'3234.2
2017-Dec-09 00:00N 45°48' W 083°42'917.5 330 / 181007.910.8 -5.3 5.6
2017-Dec-08 23:29N 45°40' W 083°38'612.9
2017-Dec-08 23:00N 45°34' W 083°33'3272.5
2017-Dec-08 23:00N 45°36' W 083°36'918.2 320 / 191007.9 5.4 -4.7 5.5
2017-Dec-08 22:30N 45°29' W 083°28'611.4
2017-Dec-08 22:00N 45°24' W 083°24'145.8 340 / 221007.2 -4.5 6.0
2017-Dec-08 21:58N 45°23' W 083°22'1414.0
2017-Dec-08 21:00N 45°12' W 083°12'7 7.3 270 / 261006.210.8 -3.1 5.5
2017-Dec-08 20:00N 45°06' W 083°06'1818.5 290 / 181006.6 -3.2 4.0
2017-Dec-08 19:00N 44°48' W 083°12'1212.0 260 / 251006.2 -1.6 5.9
2017-Dec-08 18:00N 44°36' W 083°12'1212.0 240 / 221007.2 -2.0 5.3
2017-Dec-08 17:00N 44°24' W 083°12'1212.0 250 / 221008.3 -2.4 5.4
2017-Dec-08 16:00N 44°12' W 083°12'7 7.4 230 / 281009.3 -1.4 5.7
2017-Dec-08 15:00N 44°06' W 083°06'9 8.6 220 / 371006.9 -2.2 5.6
2017-Dec-08 14:00N 44°06' W 082°54'1110.5 210 / 271008.3 -3.3 4.6
2017-Dec-08 13:00N 44°00' W 082°42'1514.8 210 / 231010.3 -3.8 5.2
2017-Dec-08 12:00N 43°48' W 082°30'1212.0 200 / 191011.3 -3.2 5.2
2017-Dec-08 11:00N 43°36' W 082°30'1212.0 210 / 201012.310.8 -3.1 5.9
2017-Dec-08 10:00N 43°24' W 082°30'1312.8 210 / 181013.3 -2.7 6.0
2017-Dec-08 09:00N 43°12' W 082°24'1212.0 220 / 151014.3 -3.3 5.8
2017-Dec-08 08:00N 43°00' W 082°24'1312.8 210 / 171015.0 -4.0 5.6
2017-Dec-08 07:00N 42°48' W 082°30'6 6.0 230 / 91015.0 -4.3 5.6
2017-Dec-08 06:00N 42°42' W 082°30'1312.8 240 / 131016.0 -3.8 5.6
2017-Dec-08 05:00N 42°30' W 082°36'1110.7 250 / 131016.9 -3.3 5.5
2017-Dec-08 04:00N 42°24' W 082°48'1110.7 240 / 141017.5 -3.3 4.4
2017-Dec-08 03:00N 42°18' W 083°00'4 4.4 250 / 101018.2 -3.3 4.5
2017-Dec-08 02:00N 42°18' W 083°06'4 4.4 240 / 81018.6 -3.7 9.8
2017-Dec-08 01:00N 42°18' W 083°12'0 0.0 240 / 141018.2 -2.6 12.8
2017-Dec-08 00:00N 42°18' W 083°12'0 0.0 280 / 41017.9 -2.6 12.8
2017-Dec-07 23:00N 42°18' W 083°12'0 0.0 250 / 111017.2 -2.0 13.3
2017-Dec-07 22:00N 42°18' W 083°12'0 0.0 240 / 101016.9 -1.6 13.9
2017-Dec-07 21:00N 42°18' W 083°12'0 0.0 270 / 71016.5 -1.5 15.9
2017-Dec-07 20:00N 42°18' W 083°12'0 0.0 290 / 111015.9 -1.8 15.5
2017-Dec-07 19:00N 42°18' W 083°12'0 0.0 290 / 121016.2 -1.5 14.9
2017-Dec-07 18:00N 42°18' W 083°12'0 0.0 270 / 61016.2 -1.5 11.4
2017-Dec-07 17:00N 42°18' W 083°12'4 4.4 250 / 131016.9 -2.3 12.0
2017-Dec-07 16:00N 42°18' W 083°06'0 0.0 260 / 71017.5 -3.0 11.7
2017-Dec-07 15:00N 42°18' W 083°06'4 4.4 280 / 131016.9 -3.4 4.8
2017-Dec-07 14:00N 42°18' W 083°00'1110.7 280 / 131015.9 -2.3 4.8
2017-Dec-07 13:00N 42°24' W 082°48'1514.9 270 / 151015.5 -2.1 4.8
2017-Dec-07 12:00N 42°36' W 082°36'7 7.4 290 / 81015.5 -2.1 5.8
2017-Dec-07 11:00N 42°42' W 082°30'1212.0 290 / 101015.0 -2.1 5.8
2017-Dec-07 10:00N 42°54' W 082°30'7 7.4 240 / 61014.7 -2.4 5.8
2017-Dec-07 09:00N 43°00' W 082°24'1212.0 260 / 101014.3 -2.2 6.0
2017-Dec-07 08:00N 43°12' W 082°24'1212.0 260 / 191014.0 -2.3 6.4
2017-Dec-07 07:00N 43°24' W 082°24'1212.0 270 / 161013.3 -1.9 6.7
2017-Dec-07 06:00N 43°36' W 082°24'1312.8 270 / 201013.0 -1.7 6.6
2017-Dec-07 05:00N 43°48' W 082°30'1312.8 260 / 201013.0 -2.0 6.5
2017-Dec-07 04:00N 44°00' W 082°36'1514.8 280 / 261012.7 -1.7 5.9
2017-Dec-07 03:00N 44°12' W 082°48'1414.2 280 / 231012.7 -1.8 6.1
2017-Dec-07 02:00N 44°18' W 083°06'7 7.4 270 / 201012.7 -2.3 5.9
2017-Dec-07 01:00N 44°24' W 083°12'1212.0 270 / 201011.6 -3.0 5.7
2017-Dec-07 00:00N 44°36' W 083°12'1212.0 260 / 251010.310.8 -2.8 5.3
2017-Dec-06 23:00N 44°48' W 083°12'1312.7 270 / 251009.310.8 -2.1 6.2
2017-Dec-06 22:00N 45°00' W 083°06'6 6.0 270 / 241007.9 5.4 -2.1 5.8
2017-Dec-06 21:00N 45°06' W 083°06'1514.7 260 / 251006.9 -2.5 5.9
2017-Dec-06 20:00N 45°18' W 083°18'1414.0 290 / 181006.9 -3.3 6.3
2017-Dec-06 19:00N 45°24' W 083°36'1010.3 290 / 201006.2 -3.2 6.3
2017-Dec-06 18:00N 45°30' W 083°48'1514.6 300 / 271005.5 -3.4 6.3
2017-Dec-06 17:00N 45°42' W 084°00'7 7.3 270 / 301004.5 -3.7 5.8
2017-Dec-06 16:00N 45°48' W 084°06'1010.3 290 / 351003.2 -3.7 5.7
2017-Dec-06 15:00N 45°54' W 083°54'7 7.3 290 / 301003.2 -3.5 5.2
2017-Dec-06 14:00N 46°00' W 084°00'6 6.0 260 / 181003.5 -5.4 3.7
2017-Dec-06 13:00N 46°06' W 084°00'0 0.0 280 / 141003.2 -5.9 3.8
2017-Dec-06 12:00N 46°06' W 084°00'0 0.0 270 / 161002.8 -6.3 3.9
2017-Dec-06 11:00N 46°06' W 084°00'0 0.0 290 / 121002.5 -6.5 3.9
2017-Dec-06 10:00N 46°06' W 084°00'0 0.0 280 / 131002.5 -6.4 3.9
2017-Dec-06 09:00N 46°06' W 084°00'0 0.0 280 / 91002.8 -6.4 3.9
2017-Dec-06 08:00N 46°06' W 084°00'0 0.0 300 / 141002.8 -6.2 3.8
2017-Dec-06 07:00N 46°06' W 084°00'0 0.0 290 / 121002.5 -5.8 3.9
2017-Dec-06 06:00N 46°06' W 084°00'0 0.0 270 / 181002.2 -4.8 3.9
2017-Dec-06 05:00N 46°06' W 084°00'0 0.0 270 / 191002.2 -3.8 3.9
2017-Dec-06 04:00N 46°06' W 084°00'0 0.0 240 / 281001.1 -2.8 3.9
2017-Dec-06 03:00N 46°06' W 084°00'0 0.0 240 / 271001.1 -2.6 3.9
2017-Dec-06 02:00N 46°06' W 084°00'0 0.0 250 / 31999.8 -2.2 3.9
2017-Dec-06 01:00N 46°06' W 084°00'0 0.0 260 / 27999.4 -2.0 4.0
2017-Dec-06 00:00N 46°06' W 084°00'0 0.0 260 / 20998.8 -1.4 4.3
2017-Dec-05 23:00N 46°06' W 084°00'0 0.0 260 / 29997.8 -0.7 4.3
2017-Dec-05 22:00N 46°06' W 084°00'0 0.0 250 / 25997.1 -0.5 4.3
2017-Dec-05 21:00N 46°06' W 084°00'0 0.0 250 / 28996.4 0.3 4.2
2017-Dec-05 20:00N 46°06' W 084°00'0 0.0 240 / 30995.7 0.8 4.4
2017-Dec-05 19:00N 46°06' W 084°00'0 0.0 240 / 40994.7 1.4 4.3
2017-Dec-05 18:00N 46°06' W 084°00'0 0.0 230 / 34995.0 2.1 4.5
2017-Dec-05 17:00N 46°06' W 084°00'0 0.0 240 / 30994.7 2.5 4.0
2017-Dec-05 16:00N 46°06' W 084°00'0 0.0 240 / 34994.7 2.9 4.6
2017-Dec-05 15:00N 46°06' W 084°00'0 0.0 230 / 39993.7 3.3 4.7
2017-Dec-05 14:00N 46°06' W 084°00'0 0.0 240 / 38992.3 4.1 4.8
2017-Dec-05 13:00N 46°06' W 084°00'0 0.0 230 / 36991.7 5.3 4.8
2017-Dec-05 12:00N 46°06' W 084°00'0 0.0 240 / 38991.0 6.1 4.7
2017-Dec-05 11:00N 46°06' W 084°00'0 0.0 250 / 30990.6 8.3 4.3
2017-Dec-05 10:00N 46°06' W 084°00'0 0.0 260 / 22990.3 9.7 4.1
2017-Dec-05 09:00N 46°06' W 084°00'0 0.0 160 / 17990.3 9.0 4.4
2017-Dec-05 08:00N 46°06' W 084°00'0 0.0 160 / 20991.7 8.5 4.4
2017-Dec-05 07:00N 46°06' W 084°00'0 0.0 160 / 18993.4 9.4 4.1
2017-Dec-05 06:00N 46°06' W 084°00'0 0.0 170 / 17994.4 10.2 4.4
2017-Dec-05 05:00N 46°06' W 084°00'0 0.0 170 / 14995.7 10.5 4.3
2017-Dec-05 04:00N 46°06' W 084°00'0 0.0 160 / 19996.7 10.4 4.3
2017-Dec-05 03:00N 46°06' W 084°00'0 0.0 150 / 12998.1 9.5 4.1
2017-Dec-05 02:00N 46°06' W 084°00'0 0.0 150 / 14998.8 7.7 4.1
2017-Dec-05 01:00N 46°06' W 084°00'0 0.0 150 / 151000.1 7.3 4.0
2017-Dec-05 00:00N 46°06' W 084°00'0 0.0 120 / 121001.1 5.9 3.9
2017-Dec-04 23:00N 46°06' W 084°00'1010.3 080 / 181002.2 6.1 4.3
2017-Dec-04 22:00N 46°12' W 084°12'6 6.0 100 / 181002.2 5.4 5.0
2017-Dec-04 21:00N 46°18' W 084°12'1312.7 110 / 141004.5 5.7 5.4
2017-Dec-04 20:00N 46°30' W 084°18'4 4.1 130 / 181004.5 5.5 5.3
2017-Dec-04 19:00N 46°30' W 084°24'0 0.0 120 / 121006.4 5.8 5.5
2017-Dec-04 18:00N 46°30' W 084°24'4 4.1 130 / 191007.1 5.6 5.5
2017-Dec-04 17:00N 46°30' W 084°30'8 8.3 140 / 211007.1 5.0 5.8
2017-Dec-04 16:00N 46°30' W 084°42'0 0.0 130 / 401007.1 5.2 6.1
2017-Dec-04 15:00N 46°30' W 084°42'7 7.3 120 / 281010.2 5.4 6.3
2017-Dec-04 14:00N 46°36' W 084°48'1312.7 120 / 381008.8 5.4 5.0 6.2
2017-Dec-04 13:00N 46°48' W 084°54'1212.3 130 / 361010.2 2.2 4.5 5.5
2017-Dec-04 12:00N 46°48' W 085°12'1413.7 130 / 321011.2 3.8 5.3
2017-Dec-04 11:00N 46°42' W 085°30'1212.3 140 / 291011.5 4.4 5.4
2017-Dec-04 10:00N 46°42' W 085°48'1212.3 150 / 251012.510.8 5.1 5.1
2017-Dec-04 09:00N 46°42' W 086°06'1212.3 140 / 201012.5 6.5 5.1
2017-Dec-04 08:00N 46°42' W 086°24'1413.7 150 / 301011.9 6.0 5.1
2017-Dec-04 07:00N 46°36' W 086°42'1212.4 140 / 261013.5 5.4 5.2
2017-Dec-04 06:00N 46°36' W 087°00'1212.4 140 / 181014.9 5.1 5.4
2017-Dec-04 05:00N 46°36' W 087°18'4 4.1 160 / 181015.6 5.5 5.6
2017-Dec-04 04:00N 46°36' W 087°24'0 0.0 150 / 11015.9 4.5 5.1
2017-Dec-04 03:00N 46°36' W 087°24'0 0.0 160 / 11016.6 4.3 5.1
2017-Dec-04 02:00N 46°36' W 087°24'0 0.0 120 / 61016.6 4.4 5.1
2017-Dec-04 01:00N 46°36' W 087°24'0 0.0 250 / 11017.3 4.3 5.2
2017-Dec-04 00:00N 46°36' W 087°24'0 0.0 020 / 21017.3 4.6 5.2
2017-Dec-03 23:00N 46°36' W 087°24'0 0.0 010 / 21016.9 5.5 5.2
2017-Dec-03 22:00N 46°36' W 087°24'0 0.0 110 / 11017.3 6.5 5.4
2017-Dec-03 21:00N 46°36' W 087°24'0 0.0 090 / 11017.3 7.3 5.4
2017-Dec-03 20:00N 46°36' W 087°24'0 0.0 090 / 11017.3 7.3 5.4
2017-Dec-03 19:00N 46°36' W 087°24'0 0.0 100 1017.6 7.8 5.4
2017-Dec-03 18:00N 46°36' W 087°24'0 0.0 220 / 61017.9 7.1 5.2
2017-Dec-03 17:00N 46°36' W 087°24'0 0.0 230 / 21018.6 7.7 5.1
2017-Dec-03 16:00N 46°36' W 087°24'0 0.0 030 / 11019.0 5.3 5.1
2017-Dec-03 15:00N 46°36' W 087°24'4 4.1 120 / 21019.0 4.3 5.0
2017-Dec-03 14:00N 46°36' W 087°18'1616.5 190 / 181019.0 1.7 5.5
2017-Dec-03 13:00N 46°36' W 086°54'1413.7 190 / 91019.3 2.5 5.4
2017-Dec-03 12:00N 46°42' W 086°36'1212.3 180 / 101019.3 3.2 5.0
2017-Dec-03 11:00N 46°42' W 086°18'1212.3 270 / 51019.3 4.1 5.0
2017-Dec-03 10:00N 46°42' W 086°00'1413.7 320 / 101018.310.8 4.2 5.2
2017-Dec-03 09:00N 46°48' W 085°42'1212.3 330 / 101018.310.8 4.2 5.6
2017-Dec-03 08:00N 46°48' W 085°24'1212.3 310 / 101018.3 4.3 5.5
2017-Dec-03 07:00N 46°48' W 085°06'1413.7 310 / 111017.3 4.5 5.5
2017-Dec-03 06:00N 46°42' W 084°48'1514.6 300 / 161016.6 4.5 6.3
2017-Dec-03 05:00N 46°30' W 084°36'8 8.3 350 / 171016.9 4.5 6.0
2017-Dec-03 04:00N 46°30' W 084°24'0 0.0 310 / 51016.9 4.1 5.5
2017-Dec-03 03:00N 46°30' W 084°24'4 4.1 300 / 51017.9 4.4 5.2
2017-Dec-03 02:00N 46°30' W 084°18'7 7.3 330 / 61016.7 3.7 5.2
2017-Dec-03 01:00N 46°24' W 084°12'7 7.3 280 / 91016.4 3.9 5.2
2017-Dec-03 00:00N 46°18' W 084°06'1312.7 300 / 41016.4 5.2 4.9
2017-Dec-02 23:00N 46°06' W 084°00'7 7.3 250 / 21016.0 6.3 4.0
2017-Dec-02 22:00N 46°00' W 083°54'1317.9 260 / 91015.7 6.5 5.4
2017-Dec-02 21:16N 45°48' W 083°47'313.6
2017-Dec-02 21:00N 45°45' W 083°45'4280.0
2017-Dec-02 21:00N 45°48' W 083°48'1122.1 170 / 61015.710.8 6.7 5.8
2017-Dec-02 20:30N 45°39' W 083°39'713.6
2017-Dec-02 20:01N 45°34' W 083°34'3168.4
2017-Dec-02 20:00N 45°36' W 083°36'1020.0 170 / 51015.7 6.4 6.2
2017-Dec-02 19:30N 45°28' W 083°29'5 9.6
2017-Dec-02 19:00N 45°24' W 083°24'1514.7 170 / 121016.4 6.3 6.9
2017-Dec-02 18:00N 45°12' W 083°12'1514.7 180 / 141017.110.8 5.4 6.8
2017-Dec-02 17:00N 45°00' W 083°00'1514.7 190 / 151018.1 5.4 6.7
2017-Dec-02 16:00N 44°48' W 082°48'7312.1 200 / 181019.1 5.6 6.9
2017-Dec-02 10:00N 43°42' W 082°06'6 6.0 200 / 121021.5 5.9 7.3
2017-Dec-02 09:00N 43°36' W 082°06'1312.8 200 / 141021.810.8 5.6 7.5
2017-Dec-02 08:00N 43°24' W 082°12'7 7.4 210 / 111022.5 5.6 7.2
2017-Dec-02 07:00N 43°18' W 082°18'6 6.0 200 / 111022.8 5.2 7.1
2017-Dec-02 06:00N 43°12' W 082°18'1312.8 190 / 111022.8 4.7 6.9
2017-Dec-02 05:00N 43°00' W 082°24'7 7.4 200 / 81023.2 4.0 6.7
2017-Dec-02 04:00N 42°54' W 082°30'1212.0 170 / 51023.5 2.6 6.8
2017-Dec-02 03:00N 42°42' W 082°30'7 7.4 130 / 51023.5 1.5 6.7
2017-Dec-02 02:00N 42°36' W 082°36'7 7.5 160 / 51023.8 3.4 6.7
2017-Dec-02 01:00N 42°30' W 082°42'1110.7 180 / 91023.6 5.1 6.7
2017-Dec-02 00:00N 42°24' W 082°54'7 7.5 190 / 61024.0 4.3 6.3
2017-Dec-01 23:00N 42°18' W 083°00'4 4.4 190 / 41024.0 4.9 6.0
2017-Dec-01 22:00N 42°18' W 083°06'0 0.0 160 / 61023.6 6.1 5.6
2017-Dec-01 21:00N 42°18' W 083°06'0 0.0 190 / 71023.6 6.9 6.0
2017-Dec-01 20:00N 42°18' W 083°06'4 4.4 210 / 51023.6 7.8 12.2
2017-Dec-01 19:00N 42°18' W 083°12'0 0.0 250 / 61023.6 8.4 13.3
2017-Dec-01 18:00N 42°18' W 083°12'0 0.0 220 / 41024.3 8.3 13.4
2017-Dec-01 17:00N 42°18' W 083°12'0 0.0 300 / 31025.0 6.7 13.2
2017-Dec-01 16:00N 42°18' W 083°12'0 0.0 340 / 51025.7 5.5 11.9
2017-Dec-01 15:00N 42°18' W 083°12'0 0.0 340 / 31025.3 4.1 12.2
2017-Dec-01 14:00N 42°18' W 083°12'0 0.0 320 / 41024.7 3.1 12.1
2017-Dec-01 13:00N 42°18' W 083°12'0 0.0 260 / 51024.7 1.5 11.1
2017-Dec-01 12:00N 42°18' W 083°12'0 0.0 320 / 61024.3 2.1 11.1
2017-Dec-01 11:00N 42°18' W 083°12'   320 / 61023.6 2.9 12.8

Dump ship's entire track history